createdAt,value
2018-09-24T00:07:13.607Z,26.1
2018-09-24T00:17:12.851Z,26.1
2018-09-24T00:27:12.076Z,26.3
2018-09-24T00:37:11.308Z,26.3
2018-09-24T00:47:10.539Z,26.4
2018-09-24T00:57:09.771Z,26.5
2018-09-24T01:07:09.005Z,26.5
2018-09-24T01:17:08.237Z,26.6
2018-09-24T01:27:07.470Z,26.6
2018-09-24T01:37:06.710Z,26.8
2018-09-24T01:47:05.933Z,26.8
2018-09-24T01:57:05.166Z,26.8
2018-09-24T02:07:04.402Z,26.9
2018-09-24T02:17:03.628Z,27
2018-09-24T02:27:02.855Z,27
2018-09-24T02:37:02.092Z,27.1
2018-09-24T02:47:01.318Z,27.1
2018-09-24T02:57:00.569Z,27.2
2018-09-24T03:06:59.786Z,27.3
2018-09-24T03:16:59.018Z,27.3
2018-09-24T03:26:58.249Z,27.3
2018-09-24T03:36:57.476Z,27.4
2018-09-24T03:46:56.712Z,27.4
2018-09-24T03:56:55.936Z,27.4
2018-09-24T04:06:55.172Z,27.4
2018-09-24T04:16:54.401Z,24.8
2018-09-24T04:26:53.635Z,25
2018-09-24T04:36:52.865Z,25.1
2018-09-24T04:46:52.100Z,25.1
2018-09-24T04:56:51.328Z,25.1
2018-09-24T05:06:50.603Z,25.1
2018-09-24T05:16:49.799Z,25.1
2018-09-24T05:26:49.023Z,24.9
2018-09-24T05:36:48.254Z,25
2018-09-24T05:46:47.487Z,25.3
2018-09-24T05:56:46.715Z,25.7
2018-09-24T06:06:46.001Z,26.3
2018-09-24T06:16:45.180Z,26.8
2018-09-24T06:26:44.413Z,27.4
2018-09-24T06:36:43.643Z,26.9
2018-09-24T06:46:42.870Z,26.9
2018-09-24T06:56:42.107Z,26.4
2018-09-24T07:06:41.342Z,27.1
2018-09-24T07:16:40.584Z,27.9
2018-09-24T07:26:39.805Z,28.6
2018-09-24T07:36:39.042Z,29.2
2018-09-24T07:46:38.271Z,29.8
2018-09-24T07:56:37.508Z,30.1
2018-09-24T08:06:36.738Z,30.8
2018-09-24T08:16:35.963Z,31.4
2018-09-24T08:26:35.201Z,32.2
2018-09-24T08:36:34.430Z,32.9
2018-09-24T08:46:33.669Z,33.5
2018-09-24T08:56:32.898Z,34.3
2018-09-24T09:06:32.177Z,34.8
2018-09-24T09:16:31.361Z,35.5
2018-09-24T09:26:30.596Z,36.3
2018-09-24T09:36:29.837Z,37
2018-09-24T09:46:29.067Z,37.7
2018-09-24T09:56:28.306Z,38.3
2018-09-24T10:06:27.538Z,38.9
2018-09-24T10:16:26.763Z,39.7
2018-09-24T10:26:26.000Z,40.5
2018-09-24T10:36:25.232Z,41.3
2018-09-24T10:46:24.462Z,40.7
2018-09-24T10:56:23.700Z,40.9
2018-09-24T11:06:22.933Z,41.1
2018-09-24T11:16:22.374Z,41.8
2018-09-24T11:36:20.639Z,42.9
2018-09-24T11:46:19.867Z,43.5
2018-09-24T11:56:19.154Z,43.7
2018-09-24T12:06:18.337Z,43.9
2018-09-24T12:16:17.567Z,44
2018-09-24T12:26:16.801Z,44.1
2018-09-24T12:36:16.029Z,44.1
2018-09-24T12:46:15.262Z,44.1
2018-09-24T12:56:14.496Z,44.3
2018-09-24T13:06:13.728Z,44.6
2018-09-24T13:16:12.960Z,44.9
2018-09-24T13:26:12.214Z,45.2
2018-09-24T13:36:11.424Z,45.3
2018-09-24T13:46:10.657Z,45.4
2018-09-24T13:56:09.891Z,45.5
2018-09-24T14:06:09.119Z,45.5
2018-09-24T14:16:08.357Z,45.4
2018-09-24T14:26:07.586Z,44.3
2018-09-24T14:36:06.820Z,43
2018-09-24T14:46:06.054Z,41.4
2018-09-24T14:56:05.288Z,38.6
2018-09-24T15:06:04.524Z,36.7
2018-09-24T15:16:03.758Z,36.5
2018-09-24T15:26:02.992Z,36.4
2018-09-24T15:36:02.231Z,35.3
2018-09-24T15:46:01.483Z,34.9
2018-09-24T15:56:00.694Z,34.3
2018-09-24T16:05:59.929Z,30.4
2018-09-24T16:15:59.168Z,29.8
2018-09-24T16:25:58.404Z,29.8
2018-09-24T16:35:57.636Z,27.4
2018-09-24T16:45:56.864Z,26.9
2018-09-24T16:55:56.098Z,26.3
2018-09-24T17:05:55.333Z,24.8
2018-09-24T17:15:54.566Z,24.5
2018-09-24T17:25:53.804Z,24.5
2018-09-24T17:35:53.035Z,24.3
2018-09-24T17:45:52.292Z,24.3
2018-09-24T18:05:50.796Z,23.1
2018-09-24T18:15:49.969Z,22.6
2018-09-24T18:25:49.259Z,22.6
2018-09-24T18:35:48.439Z,22.4
2018-09-24T18:45:47.672Z,22
2018-09-24T18:55:46.900Z,22.1
2018-09-24T19:05:46.134Z,21.6
2018-09-24T19:15:45.400Z,21.7
2018-09-24T19:25:44.604Z,20.6
2018-09-24T19:35:43.884Z,20.4
2018-09-24T19:45:43.065Z,20.2
2018-09-24T19:55:42.301Z,20.3
2018-09-24T20:05:41.535Z,18.5
2018-09-24T20:15:40.772Z,17.6
2018-09-24T20:25:39.997Z,17.8
2018-09-24T20:35:39.237Z,17.7
2018-09-24T20:45:38.462Z,17.7
2018-09-24T20:55:37.693Z,17.7
2018-09-24T21:05:36.928Z,17.7
2018-09-24T21:15:36.157Z,17.8
2018-09-24T21:25:35.385Z,17.8
2018-09-24T21:35:34.618Z,17.7
2018-09-24T21:45:33.851Z,17.8
2018-09-24T21:55:33.090Z,17.8
2018-09-24T22:05:32.307Z,17.8
2018-09-24T22:15:31.555Z,17.8
2018-09-24T22:25:30.770Z,17.8
2018-09-24T22:35:29.999Z,17.8
2018-09-24T22:45:29.229Z,17.8
2018-09-24T22:55:28.479Z,17.8
2018-09-24T23:05:27.700Z,17.8
2018-09-24T23:15:26.924Z,17.8
2018-09-24T23:25:26.203Z,17.8
2018-09-24T23:35:25.393Z,17.8
2018-09-24T23:45:24.619Z,17.8
2018-09-24T23:55:23.850Z,17.8
